Moon Township, Pennsylvania
Current Conditions -  °F | °C
As of 10:51 AM on Friday 28 Nov 2014 (Local Time) from KPIT Reporting Station
Overcast Overcast  
Wind Chill: 14°   Ceiling: 3600
Heat Index: 26°   Visibility: 9mi
Dew Point: 14°   Wind: 16mph
Humidity: 60%   Direction: 290°WNW
Pressure: 30.32"   Gusts: 22mph
Location:  40.5042°N, 80.1934°W
Report Text: KPIT 281551Z 29014G19KT 9SM OVC036 M03/M10 A3032 RMK AO2 SNB41E50 SLP292 BINOVC P0000 T10331100
Loading
Personal Weather Stations






























Interactive Weather Map New forecast layout! Learn more

10-Day Weather Forecast

Advertisements
Track Severe Weather on mobile